Terminal Aerodrome Forecast
Issued by NWS

Home | Current Version | Previous Version | Text Only | Print | Product List | Glossary On
Versions: 1 2 3 4 5 6 7 8 9 10 11 12 13 14
000
FTUS44 KLZK 212333
TAFHRO
TAF
KHRO 212333Z 2200/2224 12009G15KT P6SM -RA VCSH SCT040 OVC100
      TEMPO 2200/2203 5SM RA BR OVC040
     FM220300 09009G15KT P6SM -RA VCTS SCT020 OVC050CB
      TEMPO 2203/2207 4SM RA BR OVC025
     FM220700 04010KT 5SM -SHRA BR VCTS BKN015 OVC035CB
     FM221300 36007KT 6SM -RA BR BKN020 OVC040=

USA.gov is the U.S. government's official web portal to all federal, state and local government web resources and services.